Time,TemperatureF,DewpointF,PressureIn,WindDirection,WindDirectionDegrees,WindSpeedMPH,WindSpeedGustMPH,Humidity,HourlyPrecipIn,Conditions,Clouds,dailyrainin,SoftwareType,DateUTC
2013-06-16 00:00:00,60.3,55.0,29.87,NNE,23,0.0,0.0,83,0.00,,,0.00,meteobridge,2013-06-16 05:00:00,
2013-06-16 00:06:00,-999.0,-99.9,-100.00,North,-999,-999.0,-999.0,-999,-99.99,,,-99.99,meteobridge,2013-06-16 05:06:00,
2013-06-16 00:11:00,60.4,55.9,29.87,North,0,2.2,2.2,85,0.00,,,0.00,meteobridge,2013-06-16 05:11:00,
2013-06-16 00:17:00,60.8,56.3,29.87,North,0,3.8,3.8,85,0.00,,,0.00,meteobridge,2013-06-16 05:17:00,
2013-06-16 00:23:00,61.0,56.5,29.86,NE,45,2.2,2.2,85,0.00,,,0.00,meteobridge,2013-06-16 05:23:00,
2013-06-16 00:28:00,61.2,56.7,29.86,North,0,1.6,2.2,85,0.00,,,0.00,meteobridge,2013-06-16 05:28:00,
2013-06-16 00:34:00,61.0,56.8,29.86,NE,45,2.2,2.2,86,0.00,,,0.00,meteobridge,2013-06-16 05:34:00,
2013-06-16 00:40:00,60.8,56.7,29.86,North,0,2.2,2.2,86,0.00,,,0.00,meteobridge,2013-06-16 05:40:00,
2013-06-16 00:45:00,60.6,56.5,29.86,North,0,0.0,1.6,86,0.00,,,0.00,meteobridge,2013-06-16 05:45:00,
2013-06-16 00:51:00,60.1,55.9,29.86,North,0,0.0,0.0,86,0.00,,,0.00,meteobridge,2013-06-16 05:51:00,
2013-06-16 00:57:00,59.7,55.6,29.86,North,0,0.0,0.0,86,0.00,,,0.00,meteobridge,2013-06-16 05:57:00,
2013-06-16 01:02:00,59.5,55.4,29.86,SW,225,0.0,0.0,86,0.00,,,0.00,meteobridge,2013-06-16 06:02:00,
2013-06-16 01:08:00,59.2,55.0,29.86,SW,225,0.0,0.0,86,0.00,,,0.00,meteobridge,2013-06-16 06:08:00,
2013-06-16 01:13:00,58.6,54.9,29.86,NE,45,0.0,0.0,87,0.00,,,0.00,meteobridge,2013-06-16 06:13:00,
2013-06-16 01:19:00,59.0,55.2,29.86,NE,45,0.0,0.0,87,0.00,,,0.00,meteobridge,2013-06-16 06:19:00,
2013-06-16 01:25:00,59.2,55.6,29.86,ENE,68,2.2,2.2,88,0.00,,,0.00,meteobridge,2013-06-16 06:25:00,
2013-06-16 01:30:00,59.4,55.8,29.87,NE,45,1.6,1.6,88,0.00,,,0.00,meteobridge,2013-06-16 06:30:00,
2013-06-16 01:36:00,59.4,55.8,29.86,East,90,0.0,0.0,88,0.00,,,0.00,meteobridge,2013-06-16 06:36:00,
2013-06-16 01:42:00,59.5,55.6,29.87,SE,135,1.6,1.6,87,0.00,,,0.00,meteobridge,2013-06-16 06:42:00,
2013-06-16 01:47:00,60.1,55.9,29.86,SE,135,2.2,3.1,86,0.00,,,0.00,meteobridge,2013-06-16 06:47:00,
2013-06-16 01:53:00,60.1,55.6,29.86,SE,135,1.6,1.6,85,0.00,,,0.00,meteobridge,2013-06-16 06:53:00,
2013-06-16 01:59:00,59.9,55.0,29.86,SE,135,1.6,1.6,84,0.00,,,0.00,meteobridge,2013-06-16 06:59:00,
2013-06-16 02:04:00,60.3,55.0,29.86,East,90,4.5,4.5,83,0.00,,,0.00,meteobridge,2013-06-16 07:04:00,
2013-06-16 02:10:00,61.2,54.3,29.86,East,90,3.8,3.8,78,0.00,,,0.00,meteobridge,2013-06-16 07:10:00,
2013-06-16 02:15:00,61.5,54.3,29.86,SE,135,2.2,2.2,77,0.00,,,0.00,meteobridge,2013-06-16 07:15:00,
2013-06-16 02:21:00,61.9,54.3,29.86,East,90,3.1,3.1,76,0.00,,,0.00,meteobridge,2013-06-16 07:21:00,
2013-06-16 02:27:00,62.4,54.3,29.86,East,90,3.8,4.5,75,0.00,,,0.00,meteobridge,2013-06-16 07:27:00,
2013-06-16 02:32:00,63.0,53.8,29.86,SE,135,3.1,4.5,72,0.00,,,0.00,meteobridge,2013-06-16 07:32:00,
2013-06-16 02:38:00,63.3,53.8,29.86,East,90,3.8,3.8,71,0.00,,,0.00,meteobridge,2013-06-16 07:38:00,
2013-06-16 02:44:00,63.1,53.2,29.86,East,90,3.8,4.5,70,0.00,,,0.00,meteobridge,2013-06-16 07:44:00,
2013-06-16 02:49:00,63.1,52.9,29.86,East,90,1.6,2.2,69,0.00,,,0.00,meteobridge,2013-06-16 07:49:00,
2013-06-16 02:55:00,63.1,52.9,29.86,ESE,113,1.6,2.2,69,0.00,,,0.00,meteobridge,2013-06-16 07:55:00,
2013-06-16 03:01:00,63.0,52.2,29.86,East,90,2.2,2.2,68,0.00,,,0.00,meteobridge,2013-06-16 08:01:00,
2013-06-16 03:06:00,63.0,52.2,29.86,East,90,2.2,2.2,68,0.00,,,0.00,meteobridge,2013-06-16 08:06:00,
2013-06-16 03:12:00,62.8,51.6,29.86,East,90,3.1,3.1,67,0.00,,,0.00,meteobridge,2013-06-16 08:12:00,
2013-06-16 03:18:00,62.8,51.6,29.86,East,90,3.1,3.1,67,0.00,,,0.00,meteobridge,2013-06-16 08:18:00,
2013-06-16 03:23:00,62.6,51.4,29.86,East,90,1.6,1.6,67,0.00,,,0.00,meteobridge,2013-06-16 08:23:00,
2013-06-16 03:29:00,62.2,52.0,29.86,East,90,1.6,1.6,69,0.00,,,0.00,meteobridge,2013-06-16 08:29:00,
2013-06-16 03:34:00,62.1,52.2,29.86,East,90,2.2,2.2,70,0.00,,,0.00,meteobridge,2013-06-16 08:34:00,
2013-06-16 03:40:00,62.2,52.3,29.86,East,90,2.2,2.2,70,0.00,,,0.00,meteobridge,2013-06-16 08:40:00,
2013-06-16 03:46:00,62.2,52.0,29.86,East,90,1.6,2.2,69,0.00,,,0.00,meteobridge,2013-06-16 08:46:00,
2013-06-16 03:51:00,61.9,52.0,29.86,NE,45,1.6,1.6,70,0.00,,,0.00,meteobridge,2013-06-16 08:51:00,
2013-06-16 03:57:00,61.5,51.6,29.86,East,90,1.6,1.6,70,0.00,,,0.00,meteobridge,2013-06-16 08:57:00,
2013-06-16 04:03:00,61.3,51.4,29.86,East,90,3.1,3.1,70,0.00,,,0.00,meteobridge,2013-06-16 09:03:00,
2013-06-16 04:08:00,61.2,51.3,29.86,NE,45,2.2,2.2,70,0.00,,,0.00,meteobridge,2013-06-16 09:08:00,
2013-06-16 04:14:00,61.0,51.1,29.86,East,90,1.6,3.1,70,0.00,,,0.00,meteobridge,2013-06-16 09:14:00,
2013-06-16 04:20:00,61.0,50.7,29.86,East,90,1.6,2.2,69,0.00,,,0.00,meteobridge,2013-06-16 09:20:00,
2013-06-16 04:25:00,60.8,50.2,29.86,SE,135,0.0,0.7,68,0.00,,,0.00,meteobridge,2013-06-16 09:25:00,
2013-06-16 04:31:00,60.3,50.4,29.86,NE,45,0.0,0.0,70,0.00,,,0.00,meteobridge,2013-06-16 09:31:00,
2013-06-16 04:36:00,59.9,50.2,29.86,NE,45,0.7,0.7,70,0.00,,,0.00,meteobridge,2013-06-16 09:36:00,
2013-06-16 04:42:00,59.5,50.2,29.87,East,90,2.2,2.2,71,0.00,,,0.00,meteobridge,2013-06-16 09:42:00,
2013-06-16 04:48:00,59.2,50.2,29.87,NE,45,3.1,3.1,72,0.00,,,0.00,meteobridge,2013-06-16 09:48:00,
2013-06-16 04:53:00,59.2,49.8,29.88,NE,45,3.8,3.8,71,0.00,,,0.00,meteobridge,2013-06-16 09:53:00,
2013-06-16 04:59:00,59.5,50.2,29.88,NE,45,3.8,3.8,71,0.00,,,0.00,meteobridge,2013-06-16 09:59:00,
2013-06-16 05:05:00,59.5,49.8,29.88,NE,45,1.6,2.2,70,0.00,,,0.00,meteobridge,2013-06-16 10:05:00,
2013-06-16 05:10:00,59.4,49.6,29.89,North,0,3.1,3.1,70,0.00,,,0.00,meteobridge,2013-06-16 10:10:00,
2013-06-16 05:16:00,59.2,49.5,29.89,NE,45,2.2,3.1,70,0.00,,,0.00,meteobridge,2013-06-16 10:16:00,
2013-06-16 05:22:00,59.0,49.3,29.88,NE,45,2.2,3.1,70,0.00,,,0.00,meteobridge,2013-06-16 10:22:00,
2013-06-16 05:27:00,58.8,49.8,29.88,East,90,0.0,0.0,72,0.00,,,0.00,meteobridge,2013-06-16 10:27:00,
2013-06-16 05:33:00,58.8,49.8,29.88,SSE,158,1.6,1.6,72,0.00,,,0.00,meteobridge,2013-06-16 10:33:00,
2013-06-16 05:38:00,59.0,49.6,29.88,East,90,0.0,0.0,71,0.00,,,0.00,meteobridge,2013-06-16 10:38:00,
2013-06-16 05:44:00,59.5,49.8,29.88,East,90,1.6,1.6,70,0.00,,,0.00,meteobridge,2013-06-16 10:44:00,
2013-06-16 05:50:00,60.6,50.4,29.88,NE,45,2.2,2.2,69,0.00,,,0.00,meteobridge,2013-06-16 10:50:00,
2013-06-16 05:55:00,61.7,50.7,29.88,NE,45,2.2,3.1,67,0.00,,,0.00,meteobridge,2013-06-16 10:55:00,
2013-06-16 06:01:00,62.4,50.9,29.89,NE,45,3.1,3.1,66,0.00,,,0.00,meteobridge,2013-06-16 11:01:00,
2013-06-16 06:07:00,62.8,50.4,29.89,NE,45,3.1,3.1,64,0.00,,,0.00,meteobridge,2013-06-16 11:07:00,
2013-06-16 06:12:00,63.7,50.9,29.89,NE,45,3.8,3.8,63,0.00,,,0.00,meteobridge,2013-06-16 11:12:00,
2013-06-16 06:18:00,64.2,50.9,29.89,NE,45,3.1,3.1,62,0.00,,,0.00,meteobridge,2013-06-16 11:18:00,
2013-06-16 06:24:00,65.5,52.2,29.90,NE,45,0.7,1.6,62,0.00,,,0.00,meteobridge,2013-06-16 11:24:00,
2013-06-16 06:29:00,68.0,53.1,29.90,South,180,0.0,0.0,59,0.00,,,0.00,meteobridge,2013-06-16 11:29:00,
2013-06-16 06:35:00,70.5,54.1,29.90,East,90,0.0,0.0,56,0.00,,,0.00,meteobridge,2013-06-16 11:35:00,
2013-06-16 06:41:00,70.7,52.7,29.90,NE,45,0.0,0.0,53,0.00,,,0.00,meteobridge,2013-06-16 11:41:00,
2013-06-16 06:46:00,71.4,54.0,29.90,East,90,0.0,0.0,54,0.00,,,0.00,meteobridge,2013-06-16 11:46:00,
2013-06-16 06:52:00,71.2,53.2,29.90,SE,135,0.0,0.0,53,0.00,,,0.00,meteobridge,2013-06-16 11:52:00,
2013-06-16 06:57:00,70.2,53.2,29.89,ESE,113,0.0,0.0,55,0.00,,,0.00,meteobridge,2013-06-16 11:57:00,
2013-06-16 07:03:00,69.1,54.1,29.90,NE,45,0.0,0.0,59,0.00,,,0.00,meteobridge,2013-06-16 12:03:00,
2013-06-16 07:09:00,69.1,54.7,29.90,North,0,1.6,1.6,60,0.00,,,0.00,meteobridge,2013-06-16 12:09:00,
2013-06-16 07:14:00,69.4,54.9,29.90,South,180,2.2,3.1,60,0.00,,,0.00,meteobridge,2013-06-16 12:14:00,
2013-06-16 07:20:00,69.6,55.0,29.90,East,90,3.1,3.1,60,0.00,,,0.00,meteobridge,2013-06-16 12:20:00,
2013-06-16 07:26:00,70.0,54.0,29.90,NE,45,4.5,4.5,57,0.00,,,0.00,meteobridge,2013-06-16 12:26:00,
2013-06-16 07:31:00,70.2,54.1,29.90,East,90,4.5,5.4,57,0.00,,,0.00,meteobridge,2013-06-16 12:31:00,
2013-06-16 07:37:00,70.2,53.8,29.90,East,90,4.5,4.5,56,0.00,,,0.00,meteobridge,2013-06-16 12:37:00,
2013-06-16 07:43:00,70.5,53.6,29.90,SE,135,6.0,6.0,55,0.00,,,0.00,meteobridge,2013-06-16 12:43:00,
2013-06-16 07:48:00,71.2,54.7,29.90,East,90,3.1,4.5,56,0.00,,,0.00,meteobridge,2013-06-16 12:48:00,
2013-06-16 07:54:00,72.5,54.3,29.90,SE,135,3.1,3.1,53,0.00,,,0.00,meteobridge,2013-06-16 12:54:00,
2013-06-16 07:59:00,72.1,54.1,29.90,East,90,3.8,4.5,53,0.00,,,0.00,meteobridge,2013-06-16 12:59:00,
2013-06-16 08:05:00,72.5,54.0,29.89,East,90,4.5,5.4,52,0.00,,,0.00,meteobridge,2013-06-16 13:05:00,
2013-06-16 08:11:00,72.9,55.2,29.89,East,90,3.8,3.8,54,0.00,,,0.00,meteobridge,2013-06-16 13:11:00,
2013-06-16 08:16:00,72.9,55.8,29.90,ESE,113,4.5,4.5,55,0.00,,,0.00,meteobridge,2013-06-16 13:16:00,
2013-06-16 08:22:00,73.6,54.9,29.90,SE,135,4.5,5.4,52,0.00,,,0.00,meteobridge,2013-06-16 13:22:00,
2013-06-16 08:28:00,73.9,56.8,29.90,ESE,113,5.4,5.4,55,0.00,,,0.00,meteobridge,2013-06-16 13:28:00,
2013-06-16 08:33:00,73.9,55.8,29.89,SE,135,5.4,6.0,53,0.00,,,0.00,meteobridge,2013-06-16 13:33:00,
2013-06-16 08:39:00,74.1,56.5,29.90,SE,135,3.8,4.5,54,0.00,,,0.00,meteobridge,2013-06-16 13:39:00,
2013-06-16 08:45:00,75.4,55.4,29.90,SE,135,4.5,4.5,50,0.00,,,0.00,meteobridge,2013-06-16 13:45:00,
2013-06-16 08:50:00,75.4,54.9,29.90,ESE,113,3.8,6.0,49,0.00,,,0.00,meteobridge,2013-06-16 13:50:00,
2013-06-16 08:55:00,75.4,55.4,29.89,SE,135,5.4,6.0,50,0.00,,,0.00,meteobridge,2013-06-16 13:55:00,
2013-06-16 09:01:00,75.2,55.2,29.90,NE,45,6.9,8.3,50,0.00,,,0.00,meteobridge,2013-06-16 14:01:00,
2013-06-16 09:07:00,75.2,54.7,29.90,NE,45,7.6,8.3,49,0.00,,,0.00,meteobridge,2013-06-16 14:07:00,
2013-06-16 09:12:00,75.9,56.5,29.90,SE,135,5.4,5.4,51,0.00,,,0.00,meteobridge,2013-06-16 14:12:00,
2013-06-16 09:18:00,76.1,56.7,29.90,SE,135,6.9,6.9,51,0.00,,,0.00,meteobridge,2013-06-16 14:18:00,
2013-06-16 09:24:00,76.1,55.0,29.90,East,90,6.0,7.6,48,0.00,,,0.00,meteobridge,2013-06-16 14:24:00,
2013-06-16 09:29:00,76.6,55.4,29.90,East,90,6.9,7.6,48,0.00,,,0.00,meteobridge,2013-06-16 14:29:00,
2013-06-16 09:35:00,76.8,55.6,29.90,East,90,7.6,7.6,48,0.00,,,0.00,meteobridge,2013-06-16 14:35:00,
2013-06-16 09:40:00,77.0,55.2,29.90,ESE,113,6.9,8.3,47,0.00,,,0.00,meteobridge,2013-06-16 14:40:00,
2013-06-16 09:46:00,77.7,57.0,29.90,NE,45,3.8,4.5,49,0.00,,,0.00,meteobridge,2013-06-16 14:46:00,
2013-06-16 09:52:00,78.6,56.1,29.90,East,90,3.1,4.5,46,0.00,,,0.00,meteobridge,2013-06-16 14:52:00,
2013-06-16 09:57:00,79.0,55.8,29.90,East,90,4.5,5.4,45,0.00,,,0.00,meteobridge,2013-06-16 14:57:00,
2013-06-16 10:03:00,78.6,55.6,29.90,East,90,4.5,6.0,45,0.00,,,0.00,meteobridge,2013-06-16 15:03:00,
2013-06-16 10:09:00,79.7,55.9,29.90,SE,135,4.5,4.5,44,0.00,,,0.00,meteobridge,2013-06-16 15:09:00,
2013-06-16 10:14:00,79.2,55.4,29.90,West,270,3.8,6.9,44,0.00,,,0.00,meteobridge,2013-06-16 15:14:00,
2013-06-16 10:20:00,79.5,56.3,29.90,SE,135,5.4,5.4,45,0.00,,,0.00,meteobridge,2013-06-16 15:20:00,
2013-06-16 10:26:00,79.3,54.3,29.90,East,90,7.6,7.6,42,0.00,,,0.00,meteobridge,2013-06-16 15:26:00,
2013-06-16 10:31:00,79.2,54.7,29.90,SE,135,9.2,9.2,43,0.00,,,0.00,meteobridge,2013-06-16 15:31:00,
2013-06-16 10:37:00,79.2,55.4,29.90,NE,45,7.6,7.6,44,0.00,,,0.00,meteobridge,2013-06-16 15:37:00,
2013-06-16 10:43:00,79.7,54.5,29.90,SSE,158,9.2,9.2,42,0.00,,,0.00,meteobridge,2013-06-16 15:43:00,
2013-06-16 10:48:00,79.9,54.7,29.90,SE,135,6.9,7.6,42,0.00,,,0.00,meteobridge,2013-06-16 15:48:00,
2013-06-16 10:54:00,80.1,54.9,29.90,North,0,9.2,9.2,42,0.00,,,0.00,meteobridge,2013-06-16 15:54:00,
2013-06-16 10:59:00,80.6,54.0,29.90,NE,45,8.3,9.2,40,0.00,,,0.00,meteobridge,2013-06-16 15:59:00,
2013-06-16 11:05:00,80.4,54.5,29.90,SE,135,5.4,9.8,41,0.00,,,0.00,meteobridge,2013-06-16 16:05:00,
2013-06-16 11:11:00,80.4,55.2,29.89,East,90,9.2,10.7,42,0.00,,,0.00,meteobridge,2013-06-16 16:11:00,
2013-06-16 11:16:00,81.1,55.2,29.90,East,90,9.2,9.2,41,0.00,,,0.00,meteobridge,2013-06-16 16:16:00,
2013-06-16 11:22:00,81.5,54.1,29.89,ENE,68,9.8,9.8,39,0.00,,,0.00,meteobridge,2013-06-16 16:22:00,
2013-06-16 11:28:00,81.5,54.1,29.89,East,90,10.7,10.7,39,0.00,,,0.00,meteobridge,2013-06-16 16:28:00,
2013-06-16 11:33:00,81.3,54.7,29.89,SE,135,9.8,11.4,40,0.00,,,0.00,meteobridge,2013-06-16 16:33:00,
2013-06-16 11:39:00,81.5,50.4,29.89,East,90,13.0,13.0,34,0.00,,,0.00,meteobridge,2013-06-16 16:39:00,
2013-06-16 11:45:00,80.8,48.9,29.89,SE,135,13.0,14.5,33,0.00,,,0.00,meteobridge,2013-06-16 16:45:00,
2013-06-16 11:50:00,80.8,49.8,29.88,SE,135,9.8,13.0,34,0.00,,,0.00,meteobridge,2013-06-16 16:50:00,
2013-06-16 11:56:00,81.5,50.4,29.88,ESE,113,12.1,12.1,34,0.00,,,0.00,meteobridge,2013-06-16 16:56:00,
2013-06-16 12:01:00,81.5,49.6,29.88,East,90,9.8,9.8,33,0.00,,,0.00,meteobridge,2013-06-16 17:01:00,
2013-06-16 12:07:00,81.9,50.0,29.88,SE,135,14.5,14.5,33,0.00,,,0.00,meteobridge,2013-06-16 17:07:00,
2013-06-16 12:13:00,81.5,48.0,29.88,ESE,113,13.0,13.6,31,0.00,,,0.00,meteobridge,2013-06-16 17:13:00,
2013-06-16 12:18:00,81.5,49.6,29.88,SE,135,13.6,13.6,33,0.00,,,0.00,meteobridge,2013-06-16 17:18:00,
2013-06-16 12:24:00,81.5,49.6,29.88,SE,135,13.6,15.2,33,0.00,,,0.00,meteobridge,2013-06-16 17:24:00,
2013-06-16 12:30:00,81.7,47.3,29.89,SE,135,9.2,13.6,30,0.00,,,0.00,meteobridge,2013-06-16 17:30:00,
2013-06-16 12:35:00,82.8,53.1,29.88,NE,45,9.8,11.4,36,0.00,,,0.00,meteobridge,2013-06-16 17:35:00,
2013-06-16 12:41:00,82.8,53.1,29.88,SE,135,9.8,10.7,36,0.00,,,0.00,meteobridge,2013-06-16 17:41:00,
2013-06-16 12:47:00,83.3,51.3,29.88,SE,135,10.7,10.7,33,0.00,,,0.00,meteobridge,2013-06-16 17:47:00,
2013-06-16 12:52:00,81.7,48.9,29.88,SE,135,11.4,12.1,32,0.00,,,0.00,meteobridge,2013-06-16 17:52:00,
2013-06-16 12:58:00,82.0,48.4,29.88,SE,135,15.2,16.8,31,0.00,,,0.00,meteobridge,2013-06-16 17:58:00,
2013-06-16 13:03:00,82.2,46.8,29.88,SE,135,11.4,11.4,29,0.00,,,0.00,meteobridge,2013-06-16 18:03:00,
2013-06-16 13:09:00,82.8,47.3,29.88,East,90,15.9,15.9,29,0.00,,,0.00,meteobridge,2013-06-16 18:09:00,
2013-06-16 13:15:00,83.5,49.6,29.88,SE,135,13.0,13.0,31,0.00,,,0.00,meteobridge,2013-06-16 18:15:00,
2013-06-16 13:20:00,82.8,47.3,29.88,SE,135,10.7,15.9,29,0.00,,,0.00,meteobridge,2013-06-16 18:20:00,
2013-06-16 13:26:00,82.9,48.4,29.88,SE,135,15.9,15.9,30,0.00,,,0.00,meteobridge,2013-06-16 18:26:00,
2013-06-16 13:32:00,82.8,47.3,29.87,East,90,19.7,19.7,29,0.00,,,0.00,meteobridge,2013-06-16 18:32:00,
2013-06-16 13:37:00,82.9,47.5,29.88,ESE,113,15.9,19.0,29,0.00,,,0.00,meteobridge,2013-06-16 18:37:00,
2013-06-16 13:43:00,83.7,50.7,29.88,SE,135,12.1,13.0,32,0.00,,,0.00,meteobridge,2013-06-16 18:43:00,
2013-06-16 13:49:00,84.2,48.6,29.88,East,90,15.9,15.9,29,0.00,,,0.00,meteobridge,2013-06-16 18:49:00,
2013-06-16 13:54:00,84.2,49.5,29.88,East,90,13.6,15.2,30,0.00,,,0.00,meteobridge,2013-06-16 18:54:00,
2013-06-16 14:00:00,83.8,50.0,29.88,SE,135,13.6,15.9,31,0.00,,,0.00,meteobridge,2013-06-16 19:00:00,
2013-06-16 14:06:00,83.7,49.8,29.88,SE,135,14.5,14.5,31,0.00,,,0.00,meteobridge,2013-06-16 19:06:00,
2013-06-16 14:11:00,83.5,50.5,29.88,East,90,15.2,15.2,32,0.00,,,0.00,meteobridge,2013-06-16 19:11:00,
2013-06-16 14:17:00,84.0,50.9,29.88,East,90,7.6,13.6,32,0.00,,,0.00,meteobridge,2013-06-16 19:17:00,
2013-06-16 14:22:00,83.8,53.2,29.88,SE,135,11.4,14.5,35,0.00,,,0.00,meteobridge,2013-06-16 19:22:00,
2013-06-16 14:28:00,84.6,47.8,29.88,East,90,8.3,13.0,28,0.00,,,0.00,meteobridge,2013-06-16 19:28:00,
2013-06-16 14:34:00,84.4,48.7,29.88,SE,135,15.2,15.2,29,0.00,,,0.00,meteobridge,2013-06-16 19:34:00,
2013-06-16 14:39:00,84.0,50.2,29.88,ESE,113,10.7,14.5,31,0.00,,,0.00,meteobridge,2013-06-16 19:39:00,
2013-06-16 14:45:00,84.9,51.8,29.88,SE,135,8.3,11.4,32,0.00,,,0.00,meteobridge,2013-06-16 19:45:00,
2013-06-16 14:51:00,85.3,48.6,29.88,SE,135,8.3,10.7,28,0.00,,,0.00,meteobridge,2013-06-16 19:51:00,
2013-06-16 14:56:00,86.0,51.8,29.88,NE,45,6.9,8.3,31,0.00,,,0.00,meteobridge,2013-06-16 19:56:00,
2013-06-16 15:02:00,86.2,50.2,29.88,East,90,9.2,9.2,29,0.00,,,0.00,meteobridge,2013-06-16 20:02:00,
2013-06-16 15:08:00,85.5,53.1,29.88,ENE,68,10.7,10.7,33,0.00,,,0.00,meteobridge,2013-06-16 20:08:00,
2013-06-16 15:13:00,85.3,48.6,29.87,SE,135,10.7,10.7,28,0.00,,,0.00,meteobridge,2013-06-16 20:13:00,
2013-06-16 15:19:00,84.9,47.1,29.87,East,90,11.4,11.4,27,0.00,,,0.00,meteobridge,2013-06-16 20:19:00,
2013-06-16 15:24:00,86.2,50.2,29.87,NE,45,9.2,9.2,29,0.00,,,0.00,meteobridge,2013-06-16 20:24:00,
2013-06-16 15:30:00,87.1,50.9,29.87,East,90,9.8,9.8,29,0.00,,,0.00,meteobridge,2013-06-16 20:30:00,
2013-06-16 15:36:00,86.7,50.7,29.87,East,90,9.2,9.8,29,0.00,,,0.00,meteobridge,2013-06-16 20:36:00,
2013-06-16 15:41:00,86.7,46.8,29.87,East,90,6.9,9.2,25,0.00,,,0.00,meteobridge,2013-06-16 20:41:00,
2013-06-16 15:47:00,86.5,47.7,29.86,SSW,203,8.3,9.2,26,0.00,,,0.00,meteobridge,2013-06-16 20:47:00,
2013-06-16 15:53:00,86.9,47.8,29.86,SE,135,12.1,12.1,26,0.00,,,0.00,meteobridge,2013-06-16 20:53:00,
2013-06-16 15:58:00,86.9,46.8,29.86,SE,135,9.8,11.4,25,0.00,,,0.00,meteobridge,2013-06-16 20:58:00,
2013-06-16 16:04:00,87.1,46.9,29.85,ESE,113,10.7,12.1,25,0.00,,,0.00,meteobridge,2013-06-16 21:04:00,
2013-06-16 16:10:00,86.9,47.8,29.85,East,90,9.2,10.7,26,0.00,,,0.00,meteobridge,2013-06-16 21:10:00,
2013-06-16 16:15:00,86.9,46.8,29.85,NE,45,9.8,10.7,25,0.00,,,0.00,meteobridge,2013-06-16 21:15:00,
2013-06-16 16:21:00,87.3,47.1,29.85,SE,135,9.8,9.8,25,0.00,,,0.00,meteobridge,2013-06-16 21:21:00,
2013-06-16 16:27:00,87.3,48.2,29.85,SE,135,8.3,8.3,26,0.00,,,0.00,meteobridge,2013-06-16 21:27:00,
2013-06-16 16:32:00,87.1,46.9,29.84,East,90,9.8,11.4,25,0.00,,,0.00,meteobridge,2013-06-16 21:32:00,
2013-06-16 16:38:00,87.4,47.3,29.84,SE,135,9.8,10.7,25,0.00,,,0.00,meteobridge,2013-06-16 21:38:00,
2013-06-16 16:43:00,87.6,48.6,29.84,East,90,6.9,9.2,26,0.00,,,0.00,meteobridge,2013-06-16 21:43:00,
2013-06-16 16:49:00,88.2,50.0,29.84,ENE,68,6.9,7.6,27,0.00,,,0.00,meteobridge,2013-06-16 21:49:00,
2013-06-16 16:55:00,87.6,49.5,29.84,East,90,9.2,9.2,27,0.00,,,0.00,meteobridge,2013-06-16 21:55:00,
2013-06-16 17:00:00,86.2,47.3,29.84,East,90,11.4,11.4,26,0.00,,,0.00,meteobridge,2013-06-16 22:00:00,
2013-06-16 17:06:00,85.5,47.7,29.84,East,90,8.3,11.4,27,0.00,,,0.00,meteobridge,2013-06-16 22:06:00,
2013-06-16 17:12:00,85.3,49.5,29.83,SE,135,9.8,9.8,29,0.00,,,0.00,meteobridge,2013-06-16 22:12:00,
2013-06-16 17:17:00,84.9,50.0,29.83,East,90,13.0,13.0,30,0.00,,,0.00,meteobridge,2013-06-16 22:17:00,
2013-06-16 17:23:00,84.2,50.4,29.83,East,90,9.8,9.8,31,0.00,,,0.00,meteobridge,2013-06-16 22:23:00,
2013-06-16 17:29:00,83.8,50.9,29.83,NE,45,6.9,12.1,32,0.00,,,0.00,meteobridge,2013-06-16 22:29:00,
2013-06-16 17:34:00,83.3,52.0,29.83,East,90,8.3,9.2,34,0.00,,,0.00,meteobridge,2013-06-16 22:34:00,
2013-06-16 17:40:00,82.6,52.2,29.83,East,90,8.3,10.7,35,0.00,,,0.00,meteobridge,2013-06-16 22:40:00,
2013-06-16 17:45:00,82.2,49.5,29.84,SSE,158,13.6,14.5,32,0.00,,,0.00,meteobridge,2013-06-16 22:45:00,
2013-06-16 17:51:00,79.5,47.1,29.85,ENE,68,25.1,26.6,32,0.01,,,0.01,meteobridge,2013-06-16 22:51:00,
2013-06-16 17:57:00,77.9,47.3,29.85,East,90,22.8,27.3,34,0.01,,,0.01,meteobridge,2013-06-16 22:57:00,
2013-06-16 18:02:00,75.2,50.5,29.85,NE,45,26.6,26.6,42,0.02,,,0.02,meteobridge,2013-06-16 23:02:00,
2013-06-16 18:08:00,74.3,51.6,29.85,ENE,68,26.6,27.3,45,0.04,,,0.04,meteobridge,2013-06-16 23:08:00,
2013-06-16 18:14:00,74.1,51.4,29.85,East,90,13.6,21.3,45,0.04,,,0.04,meteobridge,2013-06-16 23:14:00,
2013-06-16 18:19:00,74.1,52.0,29.86,NE,45,10.7,11.4,46,0.04,,,0.04,meteobridge,2013-06-16 23:19:00,
2013-06-16 18:25:00,73.4,52.0,29.86,East,90,12.1,17.4,47,0.04,,,0.04,meteobridge,2013-06-16 23:25:00,
2013-06-16 18:31:00,73.0,52.2,29.86,East,90,13.6,13.6,48,0.04,,,0.04,meteobridge,2013-06-16 23:31:00,
2013-06-16 18:36:00,73.8,52.3,29.84,NE,45,13.0,20.6,47,0.04,,,0.04,meteobridge,2013-06-16 23:36:00,
2013-06-16 18:42:00,73.6,53.2,29.84,NE,45,22.8,22.8,49,0.04,,,0.04,meteobridge,2013-06-16 23:42:00,
2013-06-16 18:47:00,73.2,52.9,29.85,NW,315,7.6,15.9,49,0.02,,,0.04,meteobridge,2013-06-16 23:47:00,
2013-06-16 18:53:00,73.2,54.0,29.85,East,90,8.3,9.2,51,0.02,,,0.04,meteobridge,2013-06-16 23:53:00,
2013-06-16 18:59:00,73.2,54.5,29.85,SE,135,7.6,9.2,52,0.01,,,0.04,meteobridge,2013-06-16 23:59:00,
2013-06-16 19:04:00,73.2,54.0,29.84,NE,45,6.0,6.9,51,0.00,,,0.04,meteobridge,2013-06-17 00:04:00,
2013-06-16 19:10:00,75.0,55.0,29.84,ENE,68,8.3,9.2,50,0.00,,,0.04,meteobridge,2013-06-17 00:10:00,
2013-06-16 19:16:00,76.6,54.9,29.83,NE,45,8.3,9.2,47,0.00,,,0.04,meteobridge,2013-06-17 00:16:00,
2013-06-16 19:21:00,77.0,52.9,29.82,East,90,10.7,12.1,43,0.00,,,0.04,meteobridge,2013-06-17 00:21:00,
2013-06-16 19:27:00,77.5,52.0,29.83,ENE,68,7.6,11.4,41,0.00,,,0.04,meteobridge,2013-06-17 00:27:00,
2013-06-16 19:33:00,77.5,53.2,29.83,NE,45,7.6,7.6,43,0.00,,,0.04,meteobridge,2013-06-17 00:33:00,
2013-06-16 19:38:00,77.7,53.4,29.83,NE,45,6.9,6.9,43,0.00,,,0.04,meteobridge,2013-06-17 00:38:00,
2013-06-16 19:44:00,77.7,53.4,29.82,NE,45,4.5,4.5,43,0.00,,,0.04,meteobridge,2013-06-17 00:44:00,
2013-06-16 19:50:00,77.7,54.1,29.82,East,90,6.0,6.0,44,0.00,,,0.04,meteobridge,2013-06-17 00:50:00,
2013-06-16 19:55:00,77.9,53.6,29.82,East,90,6.0,6.0,43,0.00,,,0.04,meteobridge,2013-06-17 00:55:00,
2013-06-16 20:01:00,78.1,53.8,29.83,East,90,3.1,5.4,43,0.00,,,0.04,meteobridge,2013-06-17 01:01:00,
2013-06-16 20:06:00,78.1,53.8,29.83,SE,135,3.8,5.4,43,0.00,,,0.04,meteobridge,2013-06-17 01:06:00,
2013-06-16 20:12:00,77.7,53.4,29.83,East,90,5.4,5.4,43,0.00,,,0.04,meteobridge,2013-06-17 01:12:00,
2013-06-16 20:18:00,77.0,53.4,29.83,NE,45,5.4,5.4,44,0.00,,,0.04,meteobridge,2013-06-17 01:18:00,
2013-06-16 20:23:00,76.8,53.8,29.83,NE,45,3.8,3.8,45,0.00,,,0.04,meteobridge,2013-06-17 01:23:00,
2013-06-16 20:29:00,76.1,53.8,29.83,NE,45,3.8,4.5,46,0.00,,,0.04,meteobridge,2013-06-17 01:29:00,
2013-06-16 20:35:00,75.2,53.6,29.83,NE,45,5.4,5.4,47,0.00,,,0.04,meteobridge,2013-06-17 01:35:00,
2013-06-16 20:40:00,74.7,53.6,29.82,NE,45,4.5,6.0,48,0.00,,,0.04,meteobridge,2013-06-17 01:40:00,
2013-06-16 20:46:00,73.9,53.6,29.82,NE,45,3.1,3.8,49,0.00,,,0.04,meteobridge,2013-06-17 01:46:00,
2013-06-16 20:52:00,73.2,54.0,29.82,NE,45,3.1,3.1,51,0.00,,,0.04,meteobridge,2013-06-17 01:52:00,
2013-06-16 20:57:00,72.5,54.3,29.82,NE,45,4.5,4.5,53,0.00,,,0.04,meteobridge,2013-06-17 01:57:00,
2013-06-16 21:03:00,71.6,55.0,29.82,North,0,3.8,4.5,56,0.00,,,0.04,meteobridge,2013-06-17 02:03:00,
2013-06-16 21:08:00,71.1,56.5,29.82,NE,45,4.5,6.0,60,0.00,,,0.04,meteobridge,2013-06-17 02:08:00,
2013-06-16 21:14:00,70.5,56.5,29.82,ENE,68,3.1,3.1,61,0.00,,,0.04,meteobridge,2013-06-17 02:14:00,
2013-06-16 21:20:00,70.0,56.3,29.83,NE,45,3.8,4.5,62,0.00,,,0.04,meteobridge,2013-06-17 02:20:00,
2013-06-16 21:25:00,69.4,56.7,29.83,NE,45,2.2,3.1,64,0.00,,,0.04,meteobridge,2013-06-17 02:25:00,
2013-06-16 21:31:00,69.1,56.8,29.83,NE,45,2.2,2.2,65,0.00,,,0.04,meteobridge,2013-06-17 02:31:00,
2013-06-16 21:37:00,68.7,56.5,29.83,NE,45,4.5,4.5,65,0.00,,,0.04,meteobridge,2013-06-17 02:37:00,
2013-06-16 21:42:00,68.5,56.7,29.83,NE,45,3.8,3.8,66,0.00,,,0.04,meteobridge,2013-06-17 02:42:00,
2013-06-16 21:48:00,68.4,56.1,29.84,NE,45,3.1,3.1,65,0.00,,,0.04,meteobridge,2013-06-17 02:48:00,
2013-06-16 21:54:00,68.4,56.1,29.84,NE,45,3.1,3.1,65,0.00,,,0.04,meteobridge,2013-06-17 02:54:00,
2013-06-16 21:59:00,68.2,56.8,29.84,NE,45,3.8,3.8,67,0.00,,,0.04,meteobridge,2013-06-17 02:59:00,
2013-06-16 22:05:00,68.0,57.0,29.84,North,0,3.8,3.8,68,0.00,,,0.04,meteobridge,2013-06-17 03:05:00,
2013-06-16 22:10:00,67.8,57.7,29.84,NE,45,3.1,3.8,70,0.00,,,0.04,meteobridge,2013-06-17 03:10:00,
2013-06-16 22:16:00,67.6,57.6,29.84,NE,45,1.6,2.2,70,0.00,,,0.04,meteobridge,2013-06-17 03:16:00,
2013-06-16 22:22:00,66.9,56.8,29.85,East,90,2.2,2.2,70,0.00,,,0.04,meteobridge,2013-06-17 03:22:00,
2013-06-16 22:27:00,66.9,57.2,29.85,NE,45,1.6,2.2,71,0.00,,,0.04,meteobridge,2013-06-17 03:27:00,
2013-06-16 22:33:00,66.9,57.6,29.85,NE,45,4.5,5.4,72,0.00,,,0.04,meteobridge,2013-06-17 03:33:00,
2013-06-16 22:39:00,67.3,58.3,29.85,East,90,6.9,6.9,73,0.00,,,0.04,meteobridge,2013-06-17 03:39:00,
2013-06-16 22:44:00,67.5,58.1,29.85,NE,45,6.0,6.9,72,0.00,,,0.04,meteobridge,2013-06-17 03:44:00,
2013-06-16 22:50:00,67.5,58.1,29.85,East,90,3.1,4.5,72,0.00,,,0.04,meteobridge,2013-06-17 03:50:00,
2013-06-16 22:56:00,67.1,58.1,29.85,East,90,4.5,4.5,73,0.00,,,0.04,meteobridge,2013-06-17 03:56:00,
2013-06-16 23:01:00,66.9,57.9,29.85,North,0,3.8,3.8,73,0.00,,,0.04,meteobridge,2013-06-17 04:01:00,
2013-06-16 23:02:00,66.9,57.9,29.85,North,0,3.8,3.8,73,0.00,,,0.04,meteobridge,2013-06-17 04:02:00,
2013-06-16 23:03:00,66.9,57.9,29.85,North,0,3.8,3.8,73,0.00,,,0.04,meteobridge,2013-06-17 04:03:00,
2013-06-16 23:08:00,67.1,58.5,29.85,NE,45,4.5,4.5,74,0.00,,,0.04,meteobridge,2013-06-17 04:08:00,
2013-06-16 23:13:00,66.9,58.3,29.85,NE,45,6.0,6.0,74,0.00,,,0.04,meteobridge,2013-06-17 04:13:00,
2013-06-16 23:17:00,66.9,58.3,29.85,East,90,4.5,4.5,74,0.00,,,0.04,meteobridge,2013-06-17 04:17:00,
2013-06-16 23:22:00,66.7,58.1,29.84,North,0,13.0,13.0,74,0.00,,,0.04,meteobridge,2013-06-17 04:22:00,
2013-06-16 23:28:00,67.1,58.5,29.85,NE,45,8.3,8.3,74,0.00,,,0.04,meteobridge,2013-06-17 04:28:00,
2013-06-16 23:34:00,66.9,58.3,29.85,North,0,9.8,12.1,74,0.00,,,0.04,meteobridge,2013-06-17 04:34:00,
2013-06-16 23:39:00,66.9,58.3,29.85,NE,45,6.0,9.2,74,0.00,,,0.04,meteobridge,2013-06-17 04:39:00,
2013-06-16 23:45:00,66.7,58.1,29.85,NNE,23,9.8,9.8,74,0.00,,,0.04,meteobridge,2013-06-17 04:45:00,
2013-06-16 23:51:00,66.7,58.1,29.85,NE,45,7.6,9.2,74,0.00,,,0.04,meteobridge,2013-06-17 04:51:00,
2013-06-16 23:56:00,66.6,58.1,29.85,NE,45,9.2,9.2,74,0.00,,,0.04,meteobridge,2013-06-17 04:56:00,